createdAt,value
2018-07-17T00:00:11.400Z,17.88
2018-07-17T00:01:11.385Z,17.83
2018-07-17T00:02:12.192Z,17.79
2018-07-17T00:03:11.377Z,17.79
2018-07-17T00:04:11.307Z,17.73
2018-07-17T00:05:12.194Z,17.69
2018-07-17T00:06:11.263Z,17.71
2018-07-17T00:07:11.237Z,17.69
2018-07-17T00:08:11.741Z,17.58
2018-07-17T00:09:11.187Z,17.50
2018-07-17T00:10:11.221Z,17.52
2018-07-17T00:11:11.194Z,17.50
2018-07-17T00:12:11.120Z,17.47
2018-07-17T00:13:11.697Z,17.58
2018-07-17T00:14:11.067Z,17.49
2018-07-17T00:15:11.043Z,17.60
2018-07-17T00:16:11.076Z,17.49
2018-07-17T00:17:11.695Z,17.52
2018-07-17T00:18:10.976Z,17.52
2018-07-17T00:19:11.702Z,17.52
2018-07-17T00:20:10.923Z,17.50
2018-07-17T00:21:10.954Z,17.54
2018-07-17T00:22:11.693Z,17.55
2018-07-17T00:23:10.859Z,17.54
2018-07-17T00:24:11.691Z,17.52
2018-07-17T00:25:10.809Z,17.50
2018-07-17T00:26:10.830Z,17.55
2018-07-17T00:27:10.755Z,17.52
2018-07-17T00:28:11.700Z,17.45
2018-07-17T00:29:10.707Z,17.45
2018-07-17T00:30:10.687Z,17.43
2018-07-17T00:31:10.708Z,17.46
2018-07-17T00:32:10.639Z,17.42
2018-07-17T00:33:11.195Z,17.46
2018-07-17T00:34:10.632Z,17.35
2018-07-17T00:35:10.560Z,17.40
2018-07-17T00:36:10.537Z,17.38
2018-07-17T00:37:10.753Z,17.38
2018-07-17T00:38:10.540Z,17.36
2018-07-17T00:39:10.468Z,17.39
2018-07-17T00:40:10.452Z,17.36
2018-07-17T00:41:11.208Z,17.35
2018-07-17T00:42:10.392Z,17.36
2018-07-17T00:43:10.422Z,17.36
2018-07-17T00:44:11.198Z,17.20
2018-07-17T00:45:10.367Z,17.31
2018-07-17T00:46:10.298Z,17.15
2018-07-17T00:47:10.273Z,17.22
2018-07-17T00:48:11.198Z,17.22
2018-07-17T00:49:10.225Z,17.15
2018-07-17T00:50:10.241Z,17.06
2018-07-17T00:51:10.181Z,17.07
2018-07-17T00:52:10.151Z,17.02
2018-07-17T00:53:10.128Z,16.97
2018-07-17T00:54:10.703Z,17.02
2018-07-17T00:55:10.124Z,16.92
2018-07-17T00:56:10.054Z,17.00
2018-07-17T00:57:10.028Z,17.03
2018-07-17T00:58:10.701Z,16.94
2018-07-17T00:59:09.977Z,16.90
2018-07-17T01:00:09.992Z,16.84
2018-07-17T01:01:10.753Z,16.82
2018-07-17T01:02:09.906Z,16.88
2018-07-17T01:03:09.880Z,16.88
2018-07-17T01:04:10.699Z,16.84
2018-07-17T01:05:09.875Z,16.82
2018-07-17T01:06:09.849Z,16.88
2018-07-17T01:07:09.784Z,16.90
2018-07-17T01:08:09.760Z,16.88
2018-07-17T01:09:09.750Z,16.82
2018-07-17T01:10:09.753Z,16.85
2018-07-17T01:11:09.689Z,16.85
2018-07-17T01:12:09.757Z,16.87
2018-07-17T01:13:09.635Z,16.85
2018-07-17T01:14:10.201Z,16.76
2018-07-17T01:15:09.590Z,16.82
2018-07-17T01:16:09.564Z,16.73
2018-07-17T01:17:09.584Z,16.70
2018-07-17T01:18:09.515Z,16.63
2018-07-17T01:19:09.489Z,16.77
2018-07-17T01:20:09.465Z,16.59
2018-07-17T01:21:09.440Z,16.73
2018-07-17T01:22:09.765Z,16.72
2018-07-17T01:23:09.397Z,16.72
2018-07-17T01:24:09.373Z,16.69
2018-07-17T01:25:09.348Z,16.65
2018-07-17T01:26:09.321Z,16.70
2018-07-17T01:27:09.341Z,16.69
2018-07-17T01:28:10.205Z,16.72
2018-07-17T01:29:09.242Z,16.49
2018-07-17T01:30:09.262Z,16.57
2018-07-17T01:31:09.704Z,16.63
2018-07-17T01:32:09.216Z,16.59
2018-07-17T01:33:09.187Z,16.58
2018-07-17T01:34:09.708Z,16.57
2018-07-17T01:35:09.101Z,16.54
2018-07-17T01:36:09.071Z,16.49
2018-07-17T01:37:09.706Z,16.51
2018-07-17T01:38:09.068Z,16.48
2018-07-17T01:39:08.998Z,16.55
2018-07-17T01:40:09.713Z,16.57
2018-07-17T01:41:08.947Z,16.66
2018-07-17T01:42:09.705Z,16.63
2018-07-17T01:43:09.026Z,16.62
2018-07-17T01:44:09.707Z,16.58
2018-07-17T01:45:08.888Z,16.69
2018-07-17T01:46:08.829Z,16.69
2018-07-17T01:47:08.800Z,16.58
2018-07-17T01:48:08.776Z,16.58
2018-07-17T01:49:08.753Z,16.59
2018-07-17T01:50:08.776Z,16.57
2018-07-17T01:51:08.701Z,16.51
2018-07-17T01:52:09.210Z,16.55
2018-07-17T01:53:08.655Z,16.49
2018-07-17T01:54:08.626Z,16.58
2018-07-17T01:55:08.651Z,16.52
2018-07-17T01:56:08.578Z,16.42
2018-07-17T01:57:09.210Z,16.42
2018-07-17T01:58:08.526Z,16.45
2018-07-17T01:59:08.573Z,16.48
2018-07-17T02:00:08.477Z,16.47
2018-07-17T02:01:08.456Z,16.47
2018-07-17T02:02:08.426Z,16.54
2018-07-17T02:03:08.405Z,16.51
2018-07-17T02:04:08.775Z,16.51
2018-07-17T02:05:08.366Z,16.44
2018-07-17T02:06:08.327Z,16.48
2018-07-17T02:07:09.210Z,16.44
2018-07-17T02:08:08.333Z,16.44
2018-07-17T02:09:08.291Z,16.45
2018-07-17T02:10:08.271Z,16.30
2018-07-17T02:11:08.204Z,16.32
2018-07-17T02:12:08.712Z,16.33
2018-07-17T02:13:08.158Z,16.30
2018-07-17T02:14:08.717Z,16.34
2018-07-17T02:15:08.149Z,16.32
2018-07-17T02:16:08.085Z,16.25
2018-07-17T02:17:08.714Z,16.30
2018-07-17T02:18:08.037Z,16.22
2018-07-17T02:19:08.008Z,16.14
2018-07-17T02:20:08.024Z,16.21
2018-07-17T02:21:07.955Z,16.18
2018-07-17T02:22:07.934Z,16.16
2018-07-17T02:23:07.950Z,16.16
2018-07-17T02:24:08.718Z,16.08
2018-07-17T02:25:07.906Z,16.13
2018-07-17T02:26:07.830Z,16.04
2018-07-17T02:27:08.719Z,16.06
2018-07-17T02:28:07.780Z,16.08
2018-07-17T02:29:07.755Z,15.98
2018-07-17T02:30:08.278Z,15.99
2018-07-17T02:31:07.707Z,16.00
2018-07-17T02:32:07.683Z,15.99
2018-07-17T02:33:07.669Z,15.89
2018-07-17T02:34:07.633Z,15.96
2018-07-17T02:35:07.650Z,16.02
2018-07-17T02:36:07.608Z,15.99
2018-07-17T02:37:08.217Z,15.95
2018-07-17T02:38:07.543Z,15.98
2018-07-17T02:39:07.507Z,15.91
2018-07-17T02:40:07.482Z,15.98
2018-07-17T02:41:07.498Z,15.96
2018-07-17T02:42:07.811Z,15.99
2018-07-17T02:43:07.411Z,15.98
2018-07-17T02:44:07.383Z,16.04
2018-07-17T02:45:07.359Z,16.00
2018-07-17T02:46:07.344Z,16.02
2018-07-17T02:47:07.757Z,15.99
2018-07-17T02:48:07.281Z,16.00
2018-07-17T02:49:07.254Z,16.02
2018-07-17T02:50:08.221Z,16.00
2018-07-17T02:51:07.249Z,15.99
2018-07-17T02:52:07.723Z,15.99
2018-07-17T02:53:07.202Z,15.99
2018-07-17T02:54:07.721Z,15.95
2018-07-17T02:55:07.112Z,15.93
2018-07-17T02:56:07.084Z,15.93
2018-07-17T02:57:07.053Z,15.93
2018-07-17T02:58:07.084Z,15.92
2018-07-17T02:59:07.018Z,15.89
2018-07-17T03:00:06.984Z,15.91
2018-07-17T03:01:07.283Z,15.96
2018-07-17T03:02:06.935Z,15.91
2018-07-17T03:03:06.921Z,15.86
2018-07-17T03:04:06.928Z,15.83
2018-07-17T03:05:07.726Z,15.91
2018-07-17T03:06:06.829Z,15.86
2018-07-17T03:07:07.783Z,15.81
2018-07-17T03:08:06.808Z,15.88
2018-07-17T03:09:07.278Z,15.78
2018-07-17T03:10:06.735Z,15.80
2018-07-17T03:11:06.706Z,15.74
2018-07-17T03:12:07.227Z,15.84
2018-07-17T03:13:06.652Z,15.95
2018-07-17T03:14:06.679Z,15.88
2018-07-17T03:15:06.617Z,15.93
2018-07-17T03:16:06.577Z,15.78
2018-07-17T03:17:07.233Z,15.80
2018-07-17T03:18:06.526Z,15.80
2018-07-17T03:19:06.544Z,15.80
2018-07-17T03:20:07.231Z,15.80
2018-07-17T03:21:06.454Z,15.83
2018-07-17T03:22:06.427Z,15.81
2018-07-17T03:23:06.402Z,15.81
2018-07-17T03:24:06.425Z,15.84
2018-07-17T03:25:07.227Z,15.74
2018-07-17T03:26:06.331Z,15.78
2018-07-17T03:27:07.227Z,15.93
2018-07-17T03:28:06.275Z,15.84
2018-07-17T03:29:06.293Z,15.88
2018-07-17T03:30:06.729Z,15.83
2018-07-17T03:31:06.263Z,15.92
2018-07-17T03:32:06.177Z,15.92
2018-07-17T03:33:06.731Z,15.92
2018-07-17T03:34:06.179Z,15.92
2018-07-17T03:35:06.102Z,16.00
2018-07-17T03:36:06.074Z,16.00
2018-07-17T03:37:06.732Z,16.02
2018-07-17T03:38:06.021Z,15.92
2018-07-17T03:39:06.043Z,15.98
2018-07-17T03:40:06.020Z,15.99
2018-07-17T03:41:05.945Z,15.95
2018-07-17T03:42:05.923Z,15.99
2018-07-17T03:43:05.897Z,16.00
2018-07-17T03:44:06.730Z,15.99
2018-07-17T03:45:05.906Z,15.98
2018-07-17T03:46:05.822Z,15.98
2018-07-17T03:47:05.801Z,15.96
2018-07-17T03:48:06.732Z,16.08
2018-07-17T03:49:05.803Z,16.10
2018-07-17T03:50:05.779Z,16.07
2018-07-17T03:51:06.640Z,16.08
2018-07-17T03:52:05.673Z,16.02
2018-07-17T03:53:05.650Z,16.08
2018-07-17T03:54:05.622Z,16.06
2018-07-17T03:55:05.643Z,16.16
2018-07-17T03:56:05.615Z,16.10
2018-07-17T03:57:05.548Z,16.16
2018-07-17T03:58:05.527Z,16.18
2018-07-17T03:59:05.499Z,16.26
2018-07-17T04:00:05.475Z,16.29
2018-07-17T04:01:06.300Z,16.30
2018-07-17T04:02:05.424Z,16.33
2018-07-17T04:03:05.399Z,16.44
2018-07-17T04:04:05.378Z,16.47
2018-07-17T04:05:05.356Z,16.45
2018-07-17T04:06:05.374Z,16.48
2018-07-17T04:07:05.297Z,16.44
2018-07-17T04:08:05.276Z,16.51
2018-07-17T04:09:05.317Z,16.49
2018-07-17T04:10:05.225Z,16.52
2018-07-17T04:11:05.203Z,16.54
2018-07-17T04:12:05.200Z,16.52
2018-07-17T04:13:05.149Z,16.67
2018-07-17T04:14:05.296Z,16.69
2018-07-17T04:15:05.740Z,16.66
2018-07-17T04:16:05.294Z,16.63
2018-07-17T04:17:05.098Z,16.73
2018-07-17T04:18:05.073Z,16.69
2018-07-17T04:19:05.741Z,16.63
2018-07-17T04:20:05.028Z,16.72
2018-07-17T04:21:04.957Z,16.72
2018-07-17T04:22:05.758Z,16.74
2018-07-17T04:23:04.952Z,16.82
2018-07-17T04:24:04.881Z,16.87
2018-07-17T04:25:04.982Z,16.90
2018-07-17T04:26:05.740Z,16.88
2018-07-17T04:27:04.833Z,16.92
2018-07-17T04:28:05.740Z,17.02
2018-07-17T04:29:04.759Z,17.03
2018-07-17T04:30:04.779Z,17.10
2018-07-17T04:31:05.244Z,17.10
2018-07-17T04:32:04.687Z,17.03
2018-07-17T04:33:04.666Z,17.10
2018-07-17T04:34:05.249Z,17.17
2018-07-17T04:35:04.654Z,17.22
2018-07-17T04:36:04.592Z,17.27
2018-07-17T04:37:05.242Z,17.27
2018-07-17T04:38:04.587Z,17.30
2018-07-17T04:39:04.525Z,17.36
2018-07-17T04:40:04.494Z,17.36
2018-07-17T04:41:05.244Z,17.36
2018-07-17T04:42:04.487Z,17.35
2018-07-17T04:43:04.479Z,17.38
2018-07-17T04:44:04.431Z,17.43
2018-07-17T04:45:04.373Z,17.42
2018-07-17T04:46:05.243Z,17.46
2018-07-17T04:47:04.331Z,17.45
2018-07-17T04:48:04.799Z,17.49
2018-07-17T04:49:04.282Z,17.52
2018-07-17T04:50:05.250Z,17.58
2018-07-17T04:51:04.236Z,17.55
2018-07-17T04:52:04.255Z,17.50
2018-07-17T04:53:04.749Z,17.49
2018-07-17T04:54:04.161Z,17.63
2018-07-17T04:55:04.137Z,17.63
2018-07-17T04:56:04.748Z,17.63
2018-07-17T04:57:04.143Z,17.68
2018-07-17T04:58:04.064Z,17.69
2018-07-17T04:59:04.752Z,17.66
2018-07-17T05:00:04.025Z,17.73
2018-07-17T05:01:04.000Z,17.71
2018-07-17T05:02:04.299Z,17.63
2018-07-17T05:03:03.949Z,17.69
2018-07-17T05:04:03.930Z,17.73
2018-07-17T05:05:04.750Z,17.81
2018-07-17T05:06:03.875Z,17.68
2018-07-17T05:07:03.908Z,17.79
2018-07-17T05:08:03.831Z,17.80
2018-07-17T05:09:04.750Z,17.79
2018-07-17T05:10:03.780Z,17.79
2018-07-17T05:11:03.759Z,17.88
2018-07-17T05:12:03.783Z,17.81
2018-07-17T05:13:04.325Z,17.83
2018-07-17T05:14:03.744Z,17.87
2018-07-17T05:15:04.261Z,17.98
2018-07-17T05:16:03.646Z,17.99
2018-07-17T05:17:04.250Z,17.99
2018-07-17T05:18:03.593Z,18.08
2018-07-17T05:19:03.614Z,18.06
2018-07-17T05:20:04.252Z,18.13
2018-07-17T05:21:03.524Z,18.19
2018-07-17T05:22:03.500Z,18.16
2018-07-17T05:23:03.580Z,18.13
2018-07-17T05:24:04.252Z,18.17
2018-07-17T05:25:03.428Z,18.24
2018-07-17T05:26:03.408Z,18.19
2018-07-17T05:27:03.385Z,18.26
2018-07-17T05:28:03.809Z,18.32
2018-07-17T05:29:03.364Z,18.29
2018-07-17T05:30:04.256Z,18.31
2018-07-17T05:31:03.339Z,18.34
2018-07-17T05:32:03.269Z,18.31
2018-07-17T05:33:03.753Z,18.39
2018-07-17T05:34:03.223Z,18.50
2018-07-17T05:35:03.293Z,18.50
2018-07-17T05:36:03.177Z,18.57
2018-07-17T05:37:03.196Z,18.65
2018-07-17T05:38:03.166Z,18.60
2018-07-17T05:39:03.755Z,18.68
2018-07-17T05:40:03.084Z,18.75
2018-07-17T05:41:03.753Z,18.68
2018-07-17T05:42:03.085Z,18.75
2018-07-17T05:43:03.016Z,18.82
2018-07-17T05:44:03.761Z,18.79
2018-07-17T05:45:02.974Z,18.78
2018-07-17T05:46:03.756Z,18.91
2018-07-17T05:47:02.971Z,18.96
2018-07-17T05:48:03.759Z,18.96
2018-07-17T05:49:02.891Z,19.00
2018-07-17T05:50:02.857Z,19.09
2018-07-17T05:51:02.844Z,19.16
2018-07-17T05:52:02.946Z,19.27
2018-07-17T05:53:02.790Z,19.35
2018-07-17T05:54:02.774Z,19.38
2018-07-17T05:55:02.747Z,19.53
2018-07-17T05:56:02.811Z,19.55
2018-07-17T05:57:02.704Z,19.64
2018-07-17T05:58:02.717Z,19.75
2018-07-17T05:59:03.268Z,19.89
2018-07-17T06:00:02.688Z,20.10
2018-07-17T06:01:03.261Z,20.02
2018-07-17T06:02:02.596Z,20.11
2018-07-17T06:03:03.261Z,20.27
2018-07-17T06:04:02.589Z,20.35
2018-07-17T06:05:03.296Z,20.54
2018-07-17T06:06:02.507Z,20.51
2018-07-17T06:07:02.816Z,20.66
2018-07-17T06:08:02.461Z,20.74
2018-07-17T06:09:03.261Z,20.82
2018-07-17T06:10:02.452Z,21.00
2018-07-17T06:11:02.401Z,21.01
2018-07-17T06:12:02.841Z,21.19
2018-07-17T06:13:02.357Z,21.18
2018-07-17T06:14:03.275Z,21.27
2018-07-17T06:15:02.313Z,21.37
2018-07-17T06:16:03.269Z,21.37
2018-07-17T06:17:02.316Z,21.43
2018-07-17T06:18:02.769Z,21.48
2018-07-17T06:19:02.262Z,21.53
2018-07-17T06:20:02.769Z,21.53
2018-07-17T06:21:02.213Z,21.56
2018-07-17T06:22:02.295Z,21.46
2018-07-17T06:23:02.770Z,21.53
2018-07-17T06:24:02.131Z,21.55
2018-07-17T06:25:02.789Z,21.64
2018-07-17T06:26:02.090Z,21.64
2018-07-17T06:27:02.420Z,21.64
2018-07-17T06:28:02.050Z,21.58
2018-07-17T06:29:02.786Z,21.55
2018-07-17T06:30:02.009Z,21.61
2018-07-17T06:31:02.009Z,21.78
2018-07-17T06:32:02.016Z,21.92
2018-07-17T06:33:02.814Z,21.96
2018-07-17T06:34:02.002Z,22.08
2018-07-17T06:35:02.773Z,22.11
2018-07-17T06:36:01.920Z,22.22
2018-07-17T06:37:02.779Z,22.34
2018-07-17T06:38:01.897Z,22.36
2018-07-17T06:39:01.833Z,22.48
2018-07-17T06:40:02.770Z,22.55
2018-07-17T06:41:01.794Z,22.45
2018-07-17T06:42:02.284Z,22.57
2018-07-17T06:43:01.794Z,22.60
2018-07-17T06:44:02.273Z,22.63
2018-07-17T06:45:01.706Z,22.69
2018-07-17T06:46:02.280Z,22.75
2018-07-17T06:47:01.718Z,22.81
2018-07-17T06:48:01.828Z,22.81
2018-07-17T06:49:01.631Z,22.81
2018-07-17T06:50:02.277Z,22.92
2018-07-17T06:51:01.596Z,22.96
2018-07-17T06:52:01.833Z,22.94
2018-07-17T06:53:01.556Z,23.01
2018-07-17T06:54:02.279Z,23.03
2018-07-17T06:55:01.513Z,22.99
2018-07-17T06:56:02.278Z,23.07
2018-07-17T06:57:01.523Z,23.09
2018-07-17T06:58:02.278Z,23.07
2018-07-17T06:59:01.444Z,23.01
2018-07-17T07:00:02.281Z,23.21
2018-07-17T07:01:01.455Z,23.29
2018-07-17T07:02:01.466Z,23.25
2018-07-17T07:03:02.283Z,23.28
2018-07-17T07:04:01.378Z,23.24
2018-07-17T07:05:02.285Z,23.19
2018-07-17T07:06:01.309Z,23.37
2018-07-17T07:07:01.778Z,23.40
2018-07-17T07:08:01.328Z,23.42
2018-07-17T07:09:01.790Z,23.55
2018-07-17T07:10:01.231Z,23.66
2018-07-17T07:11:01.782Z,23.45
2018-07-17T07:12:01.188Z,23.52
2018-07-17T07:13:01.345Z,23.50
2018-07-17T07:14:01.151Z,23.64
2018-07-17T07:15:01.784Z,23.60
2018-07-17T07:16:01.124Z,23.79
2018-07-17T07:17:01.786Z,23.75
2018-07-17T07:18:01.117Z,23.89
2018-07-17T07:19:01.349Z,23.87
2018-07-17T07:20:01.037Z,23.85
2018-07-17T07:21:01.013Z,23.90
2018-07-17T07:22:01.783Z,23.93
2018-07-17T07:23:00.978Z,23.92
2018-07-17T07:24:01.843Z,23.94
2018-07-17T07:25:00.943Z,23.84
2018-07-17T07:26:01.788Z,23.78
2018-07-17T07:27:00.905Z,23.85
2018-07-17T07:28:01.788Z,23.78
2018-07-17T07:29:00.913Z,23.79
2018-07-17T07:30:01.787Z,23.84
2018-07-17T07:31:00.890Z,23.97
2018-07-17T07:32:01.794Z,24.09
2018-07-17T07:33:00.797Z,24.14
2018-07-17T07:34:00.847Z,24.30
2018-07-17T07:35:00.801Z,24.33
2018-07-17T07:36:00.733Z,24.45
2018-07-17T07:37:01.301Z,24.52
2018-07-17T07:38:00.712Z,24.63
2018-07-17T07:39:01.290Z,24.66
2018-07-17T07:40:00.713Z,24.48
2018-07-17T07:41:01.297Z,24.66
2018-07-17T07:42:00.680Z,24.69
2018-07-17T07:43:00.603Z,24.70
2018-07-17T07:44:01.291Z,24.77
2018-07-17T07:45:00.611Z,24.74
2018-07-17T07:46:00.857Z,24.75
2018-07-17T07:47:00.529Z,24.66
2018-07-17T07:48:01.290Z,24.69
2018-07-17T07:49:00.498Z,24.67
2018-07-17T07:50:01.294Z,24.69
2018-07-17T07:51:00.499Z,24.67
2018-07-17T07:52:03.296Z,24.27
2018-07-17T07:53:00.422Z,24.17
2018-07-17T07:54:00.401Z,24.26
2018-07-17T07:55:01.318Z,24.37
2018-07-17T07:56:00.411Z,24.63
2018-07-17T07:57:01.300Z,24.78
2018-07-17T07:58:00.331Z,24.69
2018-07-17T07:59:00.360Z,24.70
2018-07-17T08:00:00.294Z,24.85
2018-07-17T08:01:00.276Z,24.87
2018-07-17T08:02:00.410Z,25.08
2018-07-17T08:03:00.293Z,25.12
2018-07-17T08:04:00.367Z,25.02
2018-07-17T08:05:00.798Z,24.97
2018-07-17T08:06:00.203Z,24.94
2018-07-17T08:07:00.862Z,24.96
2018-07-17T08:08:00.151Z,24.80
2018-07-17T08:09:00.194Z,24.66
2018-07-17T08:10:02.802Z,24.85
2018-07-17T08:11:00.096Z,24.89
2018-07-17T08:12:00.091Z,25.07
2018-07-17T08:13:00.358Z,25.23
2018-07-17T08:14:00.087Z,25.34
2018-07-17T08:15:00.036Z,25.47
2018-07-17T08:16:00.024Z,25.51
2018-07-17T08:17:00.805Z,25.52
2018-07-17T08:18:00.033Z,25.51
2018-07-17T08:19:00.357Z,25.62
2018-07-17T08:19:59.941Z,25.70
2018-07-17T08:20:59.916Z,25.70
2018-07-17T08:22:00.804Z,25.48
2018-07-17T08:22:59.886Z,25.52
2018-07-17T08:24:00.356Z,25.44
2018-07-17T08:24:59.844Z,25.52
2018-07-17T08:26:00.804Z,25.60
2018-07-17T08:26:59.846Z,25.70
2018-07-17T08:27:59.790Z,25.54
2018-07-17T08:28:59.864Z,25.49
2018-07-17T08:29:59.757Z,25.62
2018-07-17T08:31:00.312Z,25.71
2018-07-17T08:31:59.724Z,25.79
2018-07-17T08:33:00.311Z,25.93
2018-07-17T08:33:59.721Z,25.97
2018-07-17T08:35:00.308Z,26.11
2018-07-17T08:35:59.701Z,26.31
2018-07-17T08:37:00.312Z,26.31
2018-07-17T08:37:59.612Z,26.20
2018-07-17T08:39:00.312Z,26.37
2018-07-17T08:39:59.581Z,26.41
2018-07-17T08:40:59.613Z,26.53
2018-07-17T08:42:00.309Z,26.57
2018-07-17T08:42:59.528Z,26.63
2018-07-17T08:44:00.317Z,26.67
2018-07-17T08:44:59.488Z,26.53
2018-07-17T08:45:59.517Z,26.52
2018-07-17T08:47:00.313Z,26.39
2018-07-17T08:47:59.450Z,26.30
2018-07-17T08:49:00.336Z,26.35
2018-07-17T08:49:59.405Z,26.37
2018-07-17T08:50:59.440Z,26.32
2018-07-17T08:52:00.314Z,26.27
2018-07-17T08:52:59.353Z,26.34
2018-07-17T08:53:59.345Z,26.44
2018-07-17T08:54:59.817Z,26.41
2018-07-17T08:55:59.336Z,26.41
2018-07-17T08:56:59.823Z,26.47
2018-07-17T08:57:59.259Z,26.47
2018-07-17T08:58:59.815Z,26.50
2018-07-17T08:59:59.229Z,26.41
2018-07-17T09:00:59.368Z,26.23
2018-07-17T09:01:59.240Z,26.23
2018-07-17T09:02:59.172Z,26.16
2018-07-17T09:03:59.819Z,26.00
2018-07-17T09:04:59.134Z,26.04
2018-07-17T09:05:59.195Z,26.01
2018-07-17T09:06:59.381Z,25.91
2018-07-17T09:07:59.082Z,25.85
2018-07-17T09:08:59.823Z,25.94
2018-07-17T09:09:59.041Z,25.97
2018-07-17T09:10:59.819Z,26.04
2018-07-17T09:11:59.050Z,26.20
2018-07-17T09:12:59.431Z,26.34
2018-07-17T09:13:58.973Z,26.30
2018-07-17T09:14:59.822Z,26.32
2018-07-17T09:15:58.940Z,26.34
2018-07-17T09:16:59.823Z,26.31
2018-07-17T09:17:58.942Z,26.30
2018-07-17T09:18:59.822Z,26.01
2018-07-17T09:19:58.928Z,25.91
2018-07-17T09:20:58.863Z,25.99
2018-07-17T09:21:59.393Z,25.79
2018-07-17T09:22:58.809Z,25.69
2018-07-17T09:23:59.335Z,25.81
2018-07-17T09:24:58.822Z,25.79
2018-07-17T09:25:59.332Z,25.67
2018-07-17T09:26:58.736Z,25.69
2018-07-17T09:27:58.754Z,25.67
2018-07-17T09:28:58.696Z,25.81
2018-07-17T09:29:58.724Z,25.84
2018-07-17T09:30:58.661Z,25.71
2018-07-17T09:31:58.640Z,25.76
2018-07-17T09:32:59.336Z,25.79
2018-07-17T09:33:58.614Z,25.85
2018-07-17T09:34:58.630Z,25.82
2018-07-17T09:35:58.621Z,25.91
2018-07-17T09:36:58.547Z,25.94
2018-07-17T09:37:58.532Z,25.85
2018-07-17T09:38:58.526Z,25.96
2018-07-17T09:39:58.506Z,25.88
2018-07-17T09:40:58.524Z,25.91
2018-07-17T09:41:58.458Z,25.96
2018-07-17T09:42:58.493Z,25.99
2018-07-17T09:43:58.421Z,26.16
2018-07-17T09:44:58.482Z,26.26
2018-07-17T09:45:58.386Z,26.27
2018-07-17T09:46:59.240Z,26.31
2018-07-17T09:47:58.340Z,26.31
2018-07-17T09:48:58.362Z,26.39
2018-07-17T09:49:58.316Z,26.47
2018-07-17T09:50:58.330Z,26.37
2018-07-17T09:51:58.316Z,26.37
2018-07-17T09:52:58.264Z,26.38
2018-07-17T09:53:58.277Z,26.32
2018-07-17T09:54:58.212Z,26.35
2018-07-17T09:55:58.213Z,26.39
2018-07-17T09:56:58.215Z,26.34
2018-07-17T09:57:58.154Z,26.44
2018-07-17T09:58:58.140Z,26.50
2018-07-17T09:59:58.164Z,26.56
2018-07-17T10:00:58.099Z,26.68
2018-07-17T10:01:58.077Z,26.68
2018-07-17T10:02:58.059Z,26.75
2018-07-17T10:03:58.092Z,26.78
2018-07-17T10:04:58.071Z,26.75
2018-07-17T10:05:58.014Z,26.74
2018-07-17T10:06:57.988Z,26.81
2018-07-17T10:07:58.027Z,26.86
2018-07-17T10:08:57.952Z,26.76
2018-07-17T10:09:57.936Z,26.89
2018-07-17T10:10:57.924Z,26.89
2018-07-17T10:11:57.894Z,26.91
2018-07-17T10:12:57.925Z,26.86
2018-07-17T10:13:57.861Z,26.79
2018-07-17T10:14:57.843Z,26.78
2018-07-17T10:15:57.827Z,26.82
2018-07-17T10:16:57.851Z,26.82
2018-07-17T10:17:57.794Z,26.82
2018-07-17T10:18:58.349Z,26.86
2018-07-17T10:19:57.779Z,26.86
2018-07-17T10:20:57.776Z,26.84
2018-07-17T10:21:57.715Z,26.90
2018-07-17T10:22:57.738Z,26.90
2018-07-17T10:23:58.347Z,26.91
2018-07-17T10:24:57.662Z,26.89
2018-07-17T10:25:57.645Z,26.96
2018-07-17T10:26:57.621Z,26.96
2018-07-17T10:27:57.651Z,27.00
2018-07-17T10:28:57.915Z,26.97
2018-07-17T10:29:57.570Z,27.08
2018-07-17T10:30:57.552Z,26.97
2018-07-17T10:31:57.555Z,26.93
2018-07-17T10:32:57.566Z,27.05
2018-07-17T10:33:58.358Z,27.01
2018-07-17T10:34:57.475Z,27.12
2018-07-17T10:35:57.467Z,27.23
2018-07-17T10:36:57.441Z,27.21
2018-07-17T10:37:57.479Z,27.27
2018-07-17T10:38:58.354Z,27.31
2018-07-17T10:39:57.403Z,27.46
2018-07-17T10:40:57.410Z,27.46
2018-07-17T10:41:57.351Z,27.53
2018-07-17T10:42:57.343Z,27.55
2018-07-17T10:43:57.363Z,27.62
2018-07-17T10:44:57.344Z,27.45
2018-07-17T10:45:57.281Z,27.41
2018-07-17T10:46:57.294Z,27.45
2018-07-17T10:47:57.258Z,27.34
2018-07-17T10:48:57.226Z,27.36
2018-07-17T10:49:57.268Z,27.41
2018-07-17T10:50:57.189Z,27.48
2018-07-17T10:51:57.181Z,27.43
2018-07-17T10:52:57.153Z,27.41
2018-07-17T10:53:57.136Z,27.46
2018-07-17T10:54:57.166Z,27.51
2018-07-17T10:55:57.119Z,27.43
2018-07-17T10:56:57.128Z,27.41
2018-07-17T10:57:57.108Z,27.42
2018-07-17T10:58:57.046Z,27.37
2018-07-17T10:59:57.027Z,27.37
2018-07-17T11:00:57.015Z,27.37
2018-07-17T11:01:57.006Z,27.46
2018-07-17T11:02:57.037Z,27.52
2018-07-17T11:03:56.962Z,27.53
2018-07-17T11:04:56.950Z,27.71
2018-07-17T11:05:56.925Z,27.65
2018-07-17T11:06:56.912Z,27.71
2018-07-17T11:07:56.940Z,27.83
2018-07-17T11:08:56.882Z,27.94
2018-07-17T11:09:56.850Z,27.90
2018-07-17T11:10:56.829Z,27.90
2018-07-17T11:11:56.853Z,27.98
2018-07-17T11:12:56.837Z,27.94
2018-07-17T11:13:56.774Z,28.14
2018-07-17T11:14:56.761Z,28.09
2018-07-17T11:15:56.791Z,28.17
2018-07-17T11:16:56.722Z,28.18
2018-07-17T11:17:56.702Z,28.27
2018-07-17T11:18:56.683Z,28.28
2018-07-17T11:19:56.668Z,28.23
2018-07-17T11:20:56.704Z,28.28
2018-07-17T11:21:56.631Z,28.36
2018-07-17T11:22:56.613Z,28.33
2018-07-17T11:23:56.592Z,28.35
2018-07-17T11:24:56.588Z,28.35
2018-07-17T11:25:56.624Z,28.36
2018-07-17T11:26:56.550Z,28.45
2018-07-17T11:27:56.538Z,28.58
2018-07-17T11:28:56.510Z,28.48
2018-07-17T11:29:56.492Z,28.60
2018-07-17T11:30:56.534Z,28.61
2018-07-17T11:31:56.529Z,28.73
2018-07-17T11:32:56.481Z,28.75
2018-07-17T11:33:56.467Z,28.73
2018-07-17T11:34:56.405Z,28.55
2018-07-17T11:35:56.391Z,28.63
2018-07-17T11:36:56.367Z,28.68
2018-07-17T11:37:56.353Z,28.78
2018-07-17T11:38:56.372Z,28.79
2018-07-17T11:39:56.316Z,28.78
2018-07-17T11:40:56.300Z,28.82
2018-07-17T11:41:56.314Z,28.80
2018-07-17T11:42:56.308Z,28.79
2018-07-17T11:43:56.249Z,28.88
2018-07-17T11:44:56.229Z,28.92
2018-07-17T11:45:56.215Z,28.92
2018-07-17T11:46:56.194Z,28.94
2018-07-17T11:47:56.303Z,29.05
2018-07-17T11:48:56.162Z,29.10
2018-07-17T11:49:56.153Z,29.14
2018-07-17T11:50:56.181Z,29.05
2018-07-17T11:51:56.107Z,28.91
2018-07-17T11:52:56.090Z,28.85
2018-07-17T11:53:56.077Z,28.65
2018-07-17T11:54:56.060Z,28.57
2018-07-17T11:55:56.099Z,28.55
2018-07-17T11:56:56.024Z,28.57
2018-07-17T11:57:56.011Z,28.53
2018-07-17T11:58:56.064Z,28.43
2018-07-17T11:59:56.875Z,28.31
2018-07-17T12:00:55.997Z,28.38
2018-07-17T12:01:55.939Z,28.35
2018-07-17T12:02:55.918Z,28.36
2018-07-17T12:03:55.910Z,28.36
2018-07-17T12:04:56.878Z,28.23
2018-07-17T12:05:56.844Z,28.36
2018-07-17T12:06:55.844Z,28.30
2018-07-17T12:07:55.834Z,28.33
2018-07-17T12:08:55.818Z,28.39
2018-07-17T12:09:55.805Z,28.38
2018-07-17T12:10:55.835Z,28.43
2018-07-17T12:11:55.765Z,28.49
2018-07-17T12:12:55.825Z,28.55
2018-07-17T12:13:55.725Z,28.60
2018-07-17T12:14:55.713Z,28.60
2018-07-17T12:15:55.753Z,28.54
2018-07-17T12:16:55.674Z,28.60
2018-07-17T12:17:55.662Z,28.63
2018-07-17T12:18:55.642Z,28.58
2018-07-17T12:19:55.794Z,28.53
2018-07-17T12:20:55.670Z,28.60
2018-07-17T12:21:55.583Z,28.58
2018-07-17T12:22:55.576Z,28.70
2018-07-17T12:23:55.549Z,28.78
2018-07-17T12:24:55.549Z,28.91
2018-07-17T12:25:55.562Z,28.83
2018-07-17T12:26:55.502Z,28.90
2018-07-17T12:27:55.548Z,28.94
2018-07-17T12:28:55.463Z,28.98
2018-07-17T12:29:55.447Z,28.92
2018-07-17T12:30:55.463Z,28.92
2018-07-17T12:31:55.413Z,29.05
2018-07-17T12:32:55.391Z,29.08
2018-07-17T12:33:55.374Z,29.13
2018-07-17T12:34:55.454Z,29.14
2018-07-17T12:35:55.343Z,29.17
2018-07-17T12:36:55.342Z,29.02
2018-07-17T12:37:55.357Z,29.02
2018-07-17T12:38:55.297Z,29.05
2018-07-17T12:39:55.278Z,29.10
2018-07-17T12:40:55.261Z,29.17
2018-07-17T12:41:55.235Z,29.14
2018-07-17T12:42:55.264Z,29.03
2018-07-17T12:43:55.200Z,28.94
2018-07-17T12:44:55.199Z,28.94
2018-07-17T12:45:55.210Z,28.90
2018-07-17T12:46:55.154Z,28.88
2018-07-17T12:47:55.456Z,28.90
2018-07-17T12:48:55.124Z,28.83
2018-07-17T12:49:55.209Z,28.95
2018-07-17T12:50:55.131Z,28.82
2018-07-17T12:51:55.067Z,28.75